createdAt,value
2019-01-18T00:02:03.597Z,95.30
2019-01-18T00:04:34.395Z,95.30
2019-01-18T00:07:04.452Z,94.20
2019-01-18T00:09:34.651Z,94.00
2019-01-18T00:12:04.910Z,93.40
2019-01-18T00:14:35.179Z,90.80
2019-01-18T00:17:05.952Z,93.80
2019-01-18T00:19:36.138Z,91.90
2019-01-18T00:22:06.501Z,92.20
2019-01-18T00:24:36.793Z,92.40
2019-01-18T00:27:06.728Z,91.60
2019-01-18T00:29:36.624Z,90.60
2019-01-18T00:32:06.880Z,91.60
2019-01-18T00:34:37.263Z,84.20
2019-01-18T00:37:07.092Z,92.10
2019-01-18T00:39:36.989Z,91.20
2019-01-18T00:42:07.046Z,90.00
2019-01-18T00:44:37.130Z,91.20
2019-01-18T00:47:07.168Z,90.80
2019-01-18T00:49:37.042Z,90.10
2019-01-18T00:52:07.776Z,86.40
2019-01-18T00:54:37.795Z,92.40
2019-01-18T00:57:07.974Z,91.20
2019-01-18T00:59:38.140Z,91.30
2019-01-18T01:02:08.088Z,90.90
2019-01-18T01:04:37.964Z,90.20
2019-01-18T01:07:08.012Z,89.50
2019-01-18T01:09:38.001Z,89.20
2019-01-18T01:12:09.164Z,86.40
2019-01-18T01:14:39.152Z,90.00
2019-01-18T01:17:09.313Z,89.40
2019-01-18T01:19:39.297Z,88.80
2019-01-18T01:22:09.558Z,88.50
2019-01-18T01:24:39.739Z,88.30
2019-01-18T01:27:09.788Z,88.40
2019-01-18T01:29:43.169Z,89.00
2019-01-18T01:32:11.632Z,90.40
2019-01-18T01:34:41.544Z,90.00
2019-01-18T01:37:11.572Z,89.00
2019-01-18T01:39:41.716Z,89.30
2019-01-18T01:42:13.832Z,88.70
2019-01-18T01:44:43.911Z,88.50
2019-01-18T01:47:13.984Z,88.80
2019-01-18T01:49:44.054Z,88.00
2019-01-18T01:52:14.459Z,87.80
2019-01-18T01:54:44.681Z,88.20
2019-01-18T01:57:14.760Z,88.30
2019-01-18T01:59:49.791Z,88.00
2019-01-18T02:02:16.903Z,88.30
2019-01-18T02:04:47.166Z,88.30
2019-01-18T02:07:17.267Z,88.10
2019-01-18T02:09:46.817Z,88.20
2019-01-18T02:12:16.341Z,88.70
2019-01-18T02:14:46.923Z,88.30
2019-01-18T02:17:16.478Z,88.30
2019-01-18T02:19:46.038Z,88.50
2019-01-18T02:22:15.601Z,88.00
2019-01-18T02:24:46.192Z,87.60
2019-01-18T02:27:16.650Z,87.60
2019-01-18T02:29:47.730Z,87.70
2019-01-18T02:32:17.247Z,87.80
2019-01-18T02:34:46.783Z,87.80
2019-01-18T02:37:18.118Z,87.60
2019-01-18T02:39:47.657Z,87.60
2019-01-18T02:42:17.738Z,87.50
2019-01-18T02:44:47.930Z,87.80
2019-01-18T02:47:17.437Z,87.60
2019-01-18T02:49:47.678Z,87.70
2019-01-18T02:52:17.844Z,87.80
2019-01-18T02:54:48.134Z,87.60
2019-01-18T02:57:18.741Z,90.40
2019-01-18T02:59:50.012Z,89.80
2019-01-18T03:02:21.279Z,89.20
2019-01-18T03:04:50.847Z,86.70
2019-01-18T03:07:20.370Z,88.70
2019-01-18T03:09:49.909Z,88.40
2019-01-18T03:12:20.516Z,87.90
2019-01-18T03:14:51.229Z,87.30
2019-01-18T03:17:21.864Z,87.50
2019-01-18T03:19:52.287Z,87.60
2019-01-18T03:22:22.459Z,87.60
2019-01-18T03:24:52.703Z,87.70
2019-01-18T03:27:22.625Z,87.70
2019-01-18T03:29:52.670Z,87.50
2019-01-18T03:32:22.801Z,88.10
2019-01-18T03:34:52.981Z,87.60
2019-01-18T03:37:23.062Z,87.30
2019-01-18T03:39:53.110Z,87.30
2019-01-18T03:42:23.461Z,87.30
2019-01-18T03:44:53.348Z,87.20
2019-01-18T03:47:23.393Z,87.10
2019-01-18T03:49:53.404Z,87.90
2019-01-18T03:52:23.443Z,87.60
2019-01-18T03:54:53.213Z,87.90
2019-01-18T03:57:23.191Z,88.60
2019-01-18T03:59:53.369Z,88.50
2019-01-18T04:02:23.517Z,88.80
2019-01-18T04:04:53.592Z,89.20
2019-01-18T04:07:23.553Z,89.50
2019-01-18T04:09:53.727Z,89.70
2019-01-18T04:12:23.942Z,89.10
2019-01-18T04:14:53.957Z,87.70
2019-01-18T04:17:24.127Z,87.30
2019-01-18T04:19:54.305Z,87.00
2019-01-18T04:22:24.683Z,87.50
2019-01-18T04:24:54.856Z,87.20
2019-01-18T04:27:26.511Z,86.90
2019-01-18T04:29:56.924Z,86.60
2019-01-18T04:32:27.568Z,86.50
2019-01-18T04:34:59.941Z,86.60
2019-01-18T04:37:30.578Z,86.80
2019-01-18T04:40:00.765Z,86.70
2019-01-18T04:42:31.378Z,86.50
2019-01-18T04:45:01.220Z,86.40
2019-01-18T04:47:30.970Z,86.90
2019-01-18T04:50:01.156Z,87.10
2019-01-18T04:52:31.543Z,88.20
2019-01-18T04:55:01.406Z,89.10
2019-01-18T04:57:32.507Z,89.10
2019-01-18T05:00:02.490Z,89.30
2019-01-18T05:02:34.016Z,89.90
2019-01-18T05:05:04.474Z,89.30
2019-01-18T05:07:34.456Z,87.60
2019-01-18T05:10:04.507Z,87.10
2019-01-18T05:12:34.682Z,86.60
2019-01-18T05:15:05.182Z,87.50
2019-01-18T05:17:36.984Z,86.70
2019-01-18T05:20:07.231Z,86.50
2019-01-18T05:22:37.317Z,86.40
2019-01-18T05:25:08.083Z,86.30
2019-01-18T05:27:37.966Z,86.90
2019-01-18T05:30:12.025Z,86.90
2019-01-18T05:32:41.973Z,87.20
2019-01-18T05:35:11.929Z,88.10
2019-01-18T05:37:41.715Z,87.30
2019-01-18T05:40:13.448Z,86.50
2019-01-18T05:42:43.376Z,86.40
2019-01-18T05:45:14.547Z,86.20
2019-01-18T05:47:46.600Z,86.40
2019-01-18T05:50:28.597Z,86.10
2019-01-18T05:53:04.627Z,86.90
2019-01-18T05:55:34.700Z,87.00
2019-01-18T05:58:05.084Z,86.40
2019-01-18T06:00:45.450Z,86.30
2019-01-18T06:03:15.475Z,86.50
2019-01-18T06:05:45.916Z,86.20
2019-01-18T06:08:15.907Z,86.10
2019-01-18T06:10:45.861Z,85.90
2019-01-18T06:13:17.585Z,85.70
2019-01-18T06:15:47.629Z,87.90
2019-01-18T06:18:17.730Z,88.00
2019-01-18T06:20:48.429Z,88.50
2019-01-18T06:23:18.777Z,88.10
2019-01-18T06:25:49.602Z,88.00
2019-01-18T06:28:20.110Z,88.20
2019-01-18T06:30:50.853Z,88.90
2019-01-18T06:33:21.024Z,88.00
2019-01-18T06:35:51.094Z,87.80
2019-01-18T06:38:21.638Z,87.80
2019-01-18T06:40:52.258Z,86.80
2019-01-18T06:43:22.320Z,86.10
2019-01-18T06:45:52.408Z,86.70
2019-01-18T06:48:25.055Z,87.60
2019-01-18T06:50:55.210Z,86.90
2019-01-18T06:53:25.235Z,86.10
2019-01-18T06:55:55.220Z,86.40
2019-01-18T06:58:25.168Z,86.00
2019-01-18T07:00:55.058Z,85.80
2019-01-18T07:03:25.102Z,85.60
2019-01-18T07:05:55.193Z,86.70
2019-01-18T07:08:25.255Z,87.00
2019-01-18T07:10:55.229Z,86.70
2019-01-18T07:13:26.657Z,86.40
2019-01-18T07:15:57.008Z,85.90
2019-01-18T07:18:27.405Z,85.80
2019-01-18T07:21:00.200Z,85.50
2019-01-18T07:23:30.919Z,86.30
2019-01-18T07:26:01.401Z,86.20
2019-01-18T07:28:31.671Z,85.70
2019-01-18T07:31:01.813Z,86.10
2019-01-18T07:33:31.861Z,85.90
2019-01-18T07:36:02.041Z,85.50
2019-01-18T07:38:32.102Z,85.40
2019-01-18T07:41:02.054Z,85.20
2019-01-18T07:43:32.080Z,86.10
2019-01-18T07:46:01.941Z,85.20
2019-01-18T07:48:32.013Z,85.10
2019-01-18T07:51:01.975Z,85.00
2019-01-18T07:53:32.156Z,84.90
2019-01-18T07:56:02.207Z,84.80
2019-01-18T07:58:32.166Z,84.70
2019-01-18T08:01:02.239Z,85.30
2019-01-18T08:03:32.213Z,85.60
2019-01-18T08:06:02.274Z,85.10
2019-01-18T08:08:32.359Z,84.80
2019-01-18T08:11:02.565Z,84.60
2019-01-18T08:13:32.478Z,84.50
2019-01-18T08:16:02.561Z,84.60
2019-01-18T08:18:32.533Z,85.00
2019-01-18T08:21:02.565Z,84.80
2019-01-18T08:23:32.563Z,84.60
2019-01-18T08:26:02.816Z,84.40
2019-01-18T08:28:32.897Z,84.30
2019-01-18T08:31:02.648Z,84.30
2019-01-18T08:33:32.609Z,84.50
2019-01-18T08:36:02.575Z,84.10
2019-01-18T08:38:32.440Z,84.90
2019-01-18T08:41:02.882Z,84.90
2019-01-18T08:43:34.013Z,85.00
2019-01-18T08:46:13.300Z,84.70
2019-01-18T08:48:43.379Z,84.30
2019-01-18T08:51:13.441Z,84.20
2019-01-18T08:53:43.508Z,84.50
2019-01-18T08:56:14.365Z,84.80
2019-01-18T08:58:46.879Z,85.50
2019-01-18T09:01:16.546Z,86.00
2019-01-18T09:03:46.752Z,86.00
2019-01-18T09:06:17.384Z,85.70
2019-01-18T09:08:47.596Z,85.90
2019-01-18T09:11:17.860Z,89.50
2019-01-18T09:13:49.690Z,88.80
2019-01-18T09:16:21.059Z,88.30
2019-01-18T09:18:51.639Z,87.60
2019-01-18T09:21:21.872Z,87.80
2019-01-18T09:23:52.403Z,87.30
2019-01-18T09:26:24.482Z,85.70
2019-01-18T09:28:56.023Z,85.90
2019-01-18T09:31:27.382Z,85.80
2019-01-18T09:33:58.008Z,84.80
2019-01-18T09:36:28.612Z,86.00
2019-01-18T09:38:58.981Z,85.70
2019-01-18T09:41:28.995Z,84.70
2019-01-18T09:43:58.830Z,87.60
2019-01-18T09:46:28.789Z,87.90
2019-01-18T09:48:58.931Z,87.90
2019-01-18T09:51:29.153Z,87.10
2019-01-18T09:53:59.208Z,85.10
2019-01-18T09:56:29.393Z,84.70
2019-01-18T09:59:01.608Z,87.80
2019-01-18T10:01:32.193Z,89.80
2019-01-18T10:04:02.261Z,88.40
2019-01-18T10:06:32.313Z,87.50
2019-01-18T10:09:02.461Z,87.80
2019-01-18T10:11:32.553Z,86.50
2019-01-18T10:14:02.636Z,88.80
2019-01-18T10:16:33.780Z,86.50
2019-01-18T10:19:03.864Z,84.90
2019-01-18T10:21:33.962Z,84.90
2019-01-18T10:24:04.116Z,83.80
2019-01-18T10:26:34.092Z,85.00
2019-01-18T10:29:04.232Z,84.40
2019-01-18T10:31:34.207Z,84.40
2019-01-18T10:34:04.268Z,84.20
2019-01-18T10:36:34.237Z,85.20
2019-01-18T10:39:06.708Z,83.90
2019-01-18T10:41:36.767Z,84.20
2019-01-18T10:44:06.893Z,83.20
2019-01-18T10:46:37.365Z,83.30
2019-01-18T10:49:07.646Z,83.30
2019-01-18T10:51:37.740Z,83.00
2019-01-18T10:54:07.986Z,82.60
2019-01-18T10:56:38.177Z,85.70
2019-01-18T10:59:08.211Z,88.20
2019-01-18T11:01:38.273Z,87.30
2019-01-18T11:04:08.349Z,88.00
2019-01-18T11:06:38.429Z,90.40
2019-01-18T11:09:10.097Z,90.30
2019-01-18T11:11:40.196Z,90.70
2019-01-18T11:14:10.473Z,91.60
2019-01-18T11:16:41.678Z,92.10
2019-01-18T11:19:11.593Z,92.20
2019-01-18T11:21:42.439Z,92.20
2019-01-18T11:24:13.169Z,91.80
2019-01-18T11:26:43.322Z,91.70
2019-01-18T11:29:13.390Z,92.00
2019-01-18T11:31:43.461Z,91.60
2019-01-18T11:34:13.824Z,90.20
2019-01-18T11:36:44.084Z,90.10
2019-01-18T11:39:14.081Z,90.70
2019-01-18T11:41:44.220Z,92.10
2019-01-18T11:44:14.220Z,92.30
2019-01-18T11:46:44.533Z,92.90
2019-01-18T11:49:14.433Z,93.50
2019-01-18T11:54:13.561Z,93.50
2019-01-18T11:56:43.625Z,95.30
2019-01-18T11:59:13.694Z,94.80
2019-01-18T12:01:43.761Z,93.80
2019-01-18T12:04:13.843Z,92.30
2019-01-18T12:06:43.899Z,93.70
2019-01-18T12:09:13.955Z,92.70
2019-01-18T12:11:44.125Z,92.30
2019-01-18T12:14:14.005Z,93.60
2019-01-18T12:16:44.164Z,94.00
2019-01-18T12:19:14.371Z,93.50
2019-01-18T12:21:44.575Z,92.40
2019-01-18T12:24:14.484Z,93.10
2019-01-18T12:26:44.655Z,93.60
2019-01-18T12:29:14.742Z,93.40
2019-01-18T12:31:45.736Z,93.30
2019-01-18T12:34:15.899Z,93.80
2019-01-18T12:36:45.668Z,93.40
2019-01-18T12:39:16.295Z,92.10
2019-01-18T12:41:46.746Z,91.30
2019-01-18T12:44:16.594Z,90.90
2019-01-18T12:46:46.577Z,90.60
2019-01-18T12:49:16.727Z,90.60
2019-01-18T12:51:50.297Z,90.60
2019-01-18T12:54:20.520Z,91.30
2019-01-18T12:56:50.642Z,90.80
2019-01-18T12:59:21.020Z,91.80
2019-01-18T13:01:51.203Z,91.30
2019-01-18T13:04:21.233Z,91.90
2019-01-18T13:06:51.221Z,91.70
2019-01-18T13:09:21.196Z,91.00
2019-01-18T13:11:52.894Z,90.40
2019-01-18T13:14:22.675Z,91.20
2019-01-18T13:16:52.700Z,90.30
2019-01-18T13:19:24.417Z,91.50
2019-01-18T13:21:54.602Z,90.90
2019-01-18T13:24:24.734Z,90.00
2019-01-18T13:26:56.516Z,92.40
2019-01-18T13:29:26.605Z,90.30
2019-01-18T13:31:56.604Z,91.40
2019-01-18T13:34:26.704Z,92.50
2019-01-18T13:36:58.085Z,91.30
2019-01-18T13:39:28.841Z,91.10
2019-01-18T13:42:00.018Z,90.70
2019-01-18T13:44:30.067Z,92.80
2019-01-18T13:47:00.256Z,91.90
2019-01-18T13:49:30.596Z,91.30
2019-01-18T13:52:00.776Z,90.50
2019-01-18T13:54:30.840Z,91.00
2019-01-18T13:57:01.028Z,92.50
2019-01-18T13:59:30.956Z,90.50
2019-01-18T14:02:00.961Z,92.80
2019-01-18T14:04:30.897Z,91.60
2019-01-18T14:07:01.060Z,90.20
2019-01-18T14:09:31.143Z,92.60
2019-01-18T14:12:01.109Z,92.40
2019-01-18T14:14:31.289Z,92.40
2019-01-18T14:17:01.353Z,91.40
2019-01-18T14:19:31.248Z,92.50
2019-01-18T14:22:03.316Z,91.80
2019-01-18T14:24:33.555Z,92.10
2019-01-18T14:27:03.917Z,92.10
2019-01-18T14:29:34.192Z,91.30
2019-01-18T14:32:04.657Z,91.50
2019-01-18T14:34:34.945Z,91.60
2019-01-18T14:37:05.668Z,90.80
2019-01-18T14:39:36.213Z,90.20
2019-01-18T14:42:06.270Z,90.20
2019-01-18T14:44:36.761Z,90.10
2019-01-18T14:47:06.729Z,90.00
2019-01-18T14:49:36.678Z,88.40
2019-01-18T14:52:06.625Z,90.10
2019-01-18T14:54:36.963Z,90.00
2019-01-18T14:57:07.124Z,89.70
2019-01-18T14:59:37.161Z,89.30
2019-01-18T15:02:07.212Z,89.10
2019-01-18T15:04:37.292Z,89.40
2019-01-18T15:07:07.361Z,89.10
2019-01-18T15:09:37.540Z,89.00
2019-01-18T15:12:07.693Z,88.90
2019-01-18T15:14:37.689Z,88.90
2019-01-18T15:17:07.606Z,89.00
2019-01-18T15:19:37.598Z,88.90
2019-01-18T15:22:07.664Z,89.10
2019-01-18T15:24:37.737Z,89.40
2019-01-18T15:27:07.650Z,89.90
2019-01-18T15:29:37.599Z,90.10
2019-01-18T15:32:07.596Z,90.00
2019-01-18T15:34:37.957Z,90.00
2019-01-18T15:37:07.913Z,90.00
2019-01-18T15:39:37.892Z,89.60
2019-01-18T15:42:08.162Z,89.60
2019-01-18T15:44:38.209Z,89.00
2019-01-18T15:47:08.504Z,89.50
2019-01-18T15:49:38.668Z,90.00
2019-01-18T15:52:08.829Z,89.70
2019-01-18T15:54:38.888Z,89.30
2019-01-18T15:57:09.488Z,89.60
2019-01-18T15:59:39.525Z,90.10
2019-01-18T16:02:09.740Z,90.20
2019-01-18T16:04:39.869Z,90.10
2019-01-18T16:07:09.951Z,89.80
2019-01-18T16:09:39.980Z,89.70
2019-01-18T16:12:09.989Z,89.50
2019-01-18T16:14:40.041Z,89.60
2019-01-18T16:17:24.352Z,90.00
2019-01-18T16:19:54.303Z,89.40
2019-01-18T16:22:24.293Z,89.10
2019-01-18T16:24:54.336Z,89.30
2019-01-18T16:27:24.428Z,90.00
2019-01-18T16:29:54.476Z,90.10
2019-01-18T16:32:24.656Z,90.10
2019-01-18T16:34:54.820Z,90.20
2019-01-18T16:37:25.017Z,90.20
2019-01-18T16:39:55.162Z,90.00
2019-01-18T16:42:25.354Z,89.90
2019-01-18T16:44:55.288Z,90.00
2019-01-18T16:47:25.468Z,90.00
2019-01-18T16:49:55.321Z,90.10
2019-01-18T16:52:25.514Z,90.10
2019-01-18T16:54:55.547Z,90.60
2019-01-18T16:57:25.644Z,90.20
2019-01-18T16:59:55.997Z,90.30
2019-01-18T17:02:26.081Z,90.50
2019-01-18T17:04:56.129Z,90.20
2019-01-18T17:07:26.312Z,90.40
2019-01-18T17:09:56.229Z,90.30
2019-01-18T17:12:26.185Z,90.00
2019-01-18T17:14:56.164Z,89.20
2019-01-18T17:17:26.536Z,90.00
2019-01-18T17:19:56.608Z,89.20
2019-01-18T17:22:26.759Z,90.00
2019-01-18T17:24:56.876Z,90.80
2019-01-18T17:27:26.996Z,90.40
2019-01-18T17:29:57.093Z,90.00
2019-01-18T17:32:27.260Z,89.40
2019-01-18T17:34:57.845Z,89.50
2019-01-18T17:37:35.164Z,89.70
2019-01-18T17:40:38.837Z,90.20
2019-01-18T17:43:33.221Z,90.10
2019-01-18T17:46:38.640Z,89.50
2019-01-18T17:49:52.386Z,89.20
2019-01-18T17:53:03.182Z,88.50
2019-01-18T17:56:18.724Z,88.40
2019-01-18T17:59:12.407Z,89.10
2019-01-18T18:02:14.998Z,89.20
2019-01-18T18:05:42.850Z,89.30
2019-01-18T18:08:33.011Z,88.60
2019-01-18T18:11:44.907Z,89.70
2019-01-18T18:14:41.507Z,89.50
2019-01-18T18:17:30.098Z,88.70
2019-01-18T18:20:39.917Z,88.70
2019-01-18T18:23:41.164Z,88.50
2019-01-18T18:27:12.904Z,88.00
2019-01-18T18:30:12.653Z,87.90
2019-01-18T18:33:06.642Z,87.60
2019-01-18T18:35:52.073Z,88.50
2019-01-18T18:38:48.576Z,89.10
2019-01-18T18:41:50.077Z,89.10
2019-01-18T18:44:49.916Z,88.50
2019-01-18T18:47:55.661Z,89.30
2019-01-18T18:50:51.060Z,89.10
2019-01-18T18:53:51.949Z,89.50
2019-01-18T18:56:46.880Z,89.70
2019-01-18T18:59:48.951Z,89.50
2019-01-18T19:02:56.241Z,88.50
2019-01-18T19:06:05.680Z,88.20
2019-01-18T19:09:15.189Z,87.50
2019-01-18T19:12:20.745Z,87.50
2019-01-18T19:15:30.828Z,87.70
2019-01-18T19:18:40.579Z,87.50
2019-01-18T19:21:56.465Z,87.20
2019-01-18T19:25:06.476Z,87.10
2019-01-18T19:28:15.705Z,87.10
2019-01-18T19:31:27.451Z,87.00
2019-01-18T19:34:43.246Z,87.30
2019-01-18T19:37:48.686Z,87.00
2019-01-18T19:40:52.905Z,86.90
2019-01-18T19:44:02.157Z,87.30
2019-01-18T19:47:13.150Z,87.60
2019-01-18T19:50:28.561Z,87.30
2019-01-18T19:53:26.471Z,87.10
2019-01-18T19:56:14.613Z,87.00
2019-01-18T19:59:32.388Z,87.50
2019-01-18T20:02:22.245Z,87.00
2019-01-18T20:05:23.722Z,86.90
2019-01-18T20:08:29.243Z,86.70
2019-01-18T20:11:29.275Z,86.80
2019-01-18T20:14:34.864Z,87.00
2019-01-18T20:17:36.985Z,87.20
2019-01-18T20:20:48.255Z,87.20
2019-01-18T20:24:04.668Z,86.80
2019-01-18T20:27:17.418Z,86.70
2019-01-18T20:30:37.661Z,86.80
2019-01-18T20:33:44.033Z,87.50
2019-01-18T20:36:40.833Z,86.80
2019-01-18T20:39:56.799Z,88.80
2019-01-18T20:43:04.708Z,88.20
2019-01-18T20:46:14.120Z,88.20
2019-01-18T20:49:22.675Z,87.40
2019-01-18T20:52:30.567Z,86.90
2019-01-18T20:55:33.247Z,86.60
2019-01-18T20:58:37.852Z,86.80
2019-01-18T21:02:03.983Z,86.70
2019-01-18T21:05:11.169Z,86.60
2019-01-18T21:08:43.341Z,86.70
2019-01-18T21:11:38.254Z,87.30
2019-01-18T21:14:50.653Z,87.00
2019-01-18T21:17:59.894Z,86.80
2019-01-18T21:21:16.424Z,86.70
2019-01-18T21:24:26.712Z,86.80
2019-01-18T21:27:03.494Z,86.60
2019-01-18T21:30:01.123Z,86.00
2019-01-18T21:32:53.760Z,86.60
2019-01-18T21:35:56.045Z,86.60
2019-01-18T21:39:11.569Z,86.90
2019-01-18T21:42:16.641Z,86.80
2019-01-18T21:45:27.212Z,86.80
2019-01-18T21:48:49.855Z,86.80
2019-01-18T21:51:30.220Z,86.80
2019-01-18T21:54:37.896Z,86.70
2019-01-18T21:57:53.696Z,86.70
2019-01-18T22:01:03.449Z,86.60
2019-01-18T22:04:08.717Z,86.90
2019-01-18T22:07:32.775Z,86.90
2019-01-18T22:10:33.680Z,86.80
2019-01-18T22:13:34.658Z,86.80
2019-01-18T22:16:32.997Z,86.80
2019-01-18T22:19:50.779Z,87.00
2019-01-18T22:23:07.610Z,86.80
2019-01-18T22:26:18.257Z,86.80
2019-01-18T22:29:21.093Z,86.80
2019-01-18T22:32:21.179Z,86.60
2019-01-18T22:35:25.069Z,87.60
2019-01-18T22:38:32.929Z,88.00
2019-01-18T22:41:53.225Z,88.20
2019-01-18T22:45:16.460Z,87.40
2019-01-18T22:48:25.087Z,87.30
2019-01-18T22:51:28.041Z,86.90
2019-01-18T22:54:48.563Z,86.70
2019-01-18T22:57:56.852Z,86.60
2019-01-18T23:01:17.044Z,86.70
2019-01-18T23:04:26.076Z,86.50
2019-01-18T23:07:35.907Z,86.50
2019-01-18T23:10:30.172Z,86.40
2019-01-18T23:13:43.340Z,86.40
2019-01-18T23:17:02.408Z,86.90
2019-01-18T23:20:07.982Z,88.10
2019-01-18T23:23:24.481Z,87.10
2019-01-18T23:26:34.988Z,86.70
2019-01-18T23:29:31.385Z,86.50
2019-01-18T23:32:22.799Z,86.50
2019-01-18T23:35:50.332Z,86.20
2019-01-18T23:39:09.849Z,86.40
2019-01-18T23:42:29.440Z,87.40
2019-01-18T23:45:24.413Z,86.60
2019-01-18T23:48:33.430Z,87.40
2019-01-18T23:51:46.969Z,86.80
2019-01-18T23:54:44.045Z,86.60
2019-01-18T23:57:38.304Z,86.40
